»·PEaware :: SWA955 KSAN-KLAS

SWA955 :: KSAN-KLAS

FLIGHT INFORMATION

Flight Status: Arrived
Operator:
Southwest Airlines
More flights by this operator :: More flights under this callsign
Pilot: Shane F. (23676)
Aircraft: BOEING 737-800
(B738)
More flights by this aircraft type
Origin: KSAN San Diego Intl-Lindbergh
United States
Destination: KLAS McCarran Intl
United States
More flights between these airports :: More routes between these airports
Route: PADRZ2 CHKNN SEBBY YELAH MISEN KEPEC6
File this flight plan on PilotEdge
Remarks:
Altitude:
(Current/Filed)
35,000ft
Speed:
(Current/Filed)
462kts
Departed: 21-May-20 12:19 PM
Arrived: 21-May-20 01:16 PM
Distance/Time
Traveled:
225nm/0:57
Distance/Time
To Go:
Arrived

Flight Plot

Page will automatically refresh every two minutes.


Map Options




Map Legend


Flown Route
Filed Route
Departure Airport
Arrival Airport
Navaid (VOR, NDB)
Fix

Horizontal Profiles

Position Reports

Time Latitude Longitude Heading Altitude Ground
Speed
21-May-20 12:02 32.732624 -117.195573 312 20ft 0kts
21-May-20 12:03 32.732624 -117.195573 312 20ft 0kts
21-May-20 12:04 32.732624 -117.195573 312 20ft 0kts
21-May-20 12:05 32.732624 -117.195573 312 20ft 0kts
21-May-20 12:07 32.732624 -117.195573 312 20ft 0kts
21-May-20 12:08 32.732624 -117.195573 312 20ft 0kts
21-May-20 12:09 32.732624 -117.195573 312 20ft 0kts
21-May-20 12:10 32.732624 -117.195573 312 20ft 0kts
21-May-20 12:11 32.732624 -117.195573 312 19ft 0kts
21-May-20 12:12 32.732465 -117.195363 311 20ft 2kts
21-May-20 12:13 32.732084 -117.195028 10 21ft 1kts
21-May-20 12:14 32.732053 -117.195034 6 21ft 0kts
21-May-20 12:15 32.732769 -117.194571 30 21ft 13kts
21-May-20 12:16 32.732003 -117.187577 106 18ft 36kts
21-May-20 12:17 32.729973 -117.179122 106 19ft 23kts
21-May-20 12:18 32.730452 -117.176887 289 24ft 21kts
21-May-20 12:19 32.740711 -117.215433 296 1222ft 159kts
21-May-20 12:20 32.772082 -117.271251 304 2950ft 238kts
21-May-20 12:21 32.814362 -117.342011 308 6310ft 272kts
21-May-20 12:21 32.854235 -117.403018 307 9204ft 285kts
21-May-20 12:23 32.916501 -117.499688 307 12069ft 336kts
21-May-20 12:24 32.974533 -117.590165 308 14976ft 350kts
21-May-20 12:24 33.023782 -117.667033 308 15360ft 354kts
21-May-20 12:26 33.100786 -117.767586 323 18645ft 360kts
21-May-20 12:26 33.165656 -117.833081 323 20811ft 367kts
21-May-20 12:27 33.243683 -117.910551 324 23336ft 370kts
21-May-20 12:28 33.325093 -117.989907 324 24049ft 371kts
21-May-20 12:29 33.405727 -118.068795 323 25391ft 374kts
21-May-20 12:30 33.486697 -118.148193 322 27445ft 378kts
21-May-20 12:31 33.569610 -118.229605 322 29243ft 384kts
21-May-20 12:32 33.668193 -118.286948 332 30879ft 392kts
21-May-20 12:33 33.778037 -118.285477 23 32408ft 436kts
21-May-20 12:34 33.860181 -118.166391 48 33604ft 470kts
21-May-20 12:35 33.937156 -118.035964 47 34968ft 470kts
21-May-20 12:36 34.011592 -117.909995 47 35027ft 465kts
21-May-20 12:37 34.085843 -117.783944 47 35041ft 466kts
21-May-20 12:38 34.166673 -117.664802 43 35046ft 488kts
21-May-20 12:39 34.255296 -117.534888 43 35046ft 492kts
21-May-20 12:40 34.342651 -117.406519 43 35074ft 488kts
21-May-20 12:41 34.430750 -117.276540 43 35060ft 470kts
21-May-20 12:42 34.514385 -117.152863 42 35048ft 437kts
21-May-20 12:43 34.599279 -117.026931 43 35104ft 471kts
21-May-20 12:44 34.690662 -116.890623 43 35084ft 493kts
21-May-20 12:45 34.783485 -116.751663 43 34999ft 487kts
21-May-20 12:46 34.871436 -116.626993 31 32327ft 469kts
21-May-20 12:47 34.972333 -116.530220 31 27942ft 464kts
21-May-20 12:48 35.073280 -116.432190 32 24649ft 447kts
21-May-20 12:49 35.167173 -116.322777 40 24081ft 466kts
21-May-20 12:50 35.258198 -116.208667 40 24083ft 467kts
21-May-20 12:51 35.349173 -116.094196 40 23958ft 456kts
21-May-20 12:52 35.437139 -115.983190 41 21167ft 450kts
21-May-20 12:53 35.521227 -115.876650 42 18364ft 420kts
21-May-20 12:54 35.599920 -115.776686 43 15654ft 394kts
21-May-20 12:55 35.673806 -115.682541 44 13138ft 371kts
21-May-20 12:56 35.737834 -115.600421 41 13030ft 298kts
21-May-20 12:57 35.814544 -115.571811 1 13035ft 293kts
21-May-20 12:58 35.896978 -115.567717 1 13028ft 295kts
21-May-20 12:59 35.974255 -115.536489 46 13022ft 303kts
21-May-20 13:00 36.009058 -115.445254 67 12329ft 289kts
21-May-20 13:01 36.030834 -115.350751 92 10916ft 285kts
21-May-20 13:02 36.022083 -115.251631 94 9731ft 273kts
21-May-20 13:03 36.015493 -115.157788 93 8812ft 257kts
21-May-20 13:04 36.010034 -115.077042 93 7500ft 216kts
21-May-20 13:05 36.005809 -115.005425 93 6072ft 194kts
21-May-20 13:06 36.021516 -114.950647 18 4259ft 187kts
21-May-20 13:07 36.063627 -114.965848 303 3398ft 162kts
21-May-20 13:08 36.073963 -115.018593 270 3114ft 155kts
21-May-20 13:09 36.073274 -115.073070 270 2793ft 146kts
21-May-20 13:10 36.073674 -115.125379 270 2242ft 148kts
21-May-20 13:11 36.060600 -115.165527 143 2940ft 154kts
21-May-20 13:12 36.051312 -115.112656 97 3573ft 163kts
21-May-20 13:13 36.068335 -115.099487 306 3103ft 170kts
21-May-20 13:14 36.073638 -115.146198 270 2105ft 56kts
21-May-20 13:15 36.074775 -115.150620 306 2120ft 0kts
21-May-20 13:16 36.078557 -115.153053 21 2122ft 13kts
21-May-20 13:17 36.078760 -115.147526 50 2102ft 12kts

Navigation Log

Ident Type
Flight plan parsing failed, navigation log unavailable